PWSweather.com
Personal Weather Stations
Station Observations
ME1989
Sicily, Barcellona Pozzo Di GottoIT

SicilyBarcellona Pozzo Di GottoIT

Lat: 38.1487398, Lon: 15.2113962

Elevation: 131

Station Type: Peet Bros

Latest ConditionsUpdated 5:10:09 AM GMT+01:01 Saturday, Oct 25, 2014
Currently Today's Max Today's Min Today's Average
Temperature 63.9°F17.7°C 64.9°F18.3°C 63.8°F17.7°C 64.3°F17.9°C
Dew Point 49.7°F9.8°C 53.7°F12.1°C 49.3°F9.6°C 50.7°F10.4°C
Winds 5.1 mph N8.2 kmh N 9.2 mph NW14.8 kmh NW - 5.2 mph 8.4 kmh
Wind Gusts 7.5 mph12.1 kmh 11.3 mph18.2 kmh - -
Humidity 60% 67% 59% 61%
Pressure 29.93 in1013.5 mb 29.93 in1013.5 mb 29.91 in1012.9 mb -
Hour Temp Dew Point Humidity Winds Wind Gusts Pressure Precip Precip Rate Daily Precip Total
05:10 AM 63.9°F17.7°C 49.7°F9.8°C 60% 5.1 mph N8.2 kmh N 7.5 mph12.1 kmh 29.93 in1013.5 mb 0.00 in0.0 mm 0.00 in/hr0.0 mm/hr 0.00 in0.0 mm
05:00 AM 63.9°F17.7°C 50.2°F10.1°C 61% 2.9 mph N4.7 kmh N 3.8 mph6.1 kmh 29.93 in1013.5 mb 0.00 in0.0 mm 0.00 in/hr0.0 mm/hr 0.00 in0.0 mm
04:50 AM 64.0°F17.8°C 49.9°F9.9°C 60% 2.4 mph N3.9 kmh N 3.4 mph5.5 kmh 29.92 in1013.2 mb 0.00 in0.0 mm 0.00 in/hr0.0 mm/hr 0.00 in0.0 mm
04:40 AM 64.0°F17.8°C 49.8°F9.9°C 60% 2.1 mph NNW3.4 kmh NNW 5.9 mph9.5 kmh 29.92 in1013.2 mb 0.00 in0.0 mm 0.00 in/hr0.0 mm/hr 0.00 in0.0 mm
04:30 AM 64.0°F17.8°C 49.8°F9.9°C 60% 4.2 mph N6.8 kmh N 5.7 mph9.2 kmh 29.92 in1013.2 mb 0.00 in0.0 mm 0.00 in/hr0.0 mm/hr 0.00 in0.0 mm
04:20 AM 63.8°F17.7°C 49.6°F9.8°C 60% 2.3 mph N3.7 kmh N 7.8 mph12.6 kmh 29.92 in1013.2 mb 0.00 in0.0 mm 0.00 in/hr0.0 mm/hr 0.00 in0.0 mm
04:10 AM 63.9°F17.7°C 49.8°F9.9°C 60% 2.5 mph NNE4.0 kmh NNE 4.2 mph6.8 kmh 29.92 in1013.2 mb 0.00 in0.0 mm 0.00 in/hr0.0 mm/hr 0.00 in0.0 mm
04:00 AM 63.9°F17.7°C 49.8°F9.9°C 60% 3.8 mph N6.1 kmh N 4.8 mph7.7 kmh 29.91 in1012.9 mb 0.00 in0.0 mm 0.00 in/hr0.0 mm/hr 0.00 in0.0 mm
03:50 AM 63.9°F17.7°C 49.3°F9.6°C 59% 2.8 mph N4.5 kmh N 4.6 mph7.4 kmh 29.91 in1012.9 mb 0.00 in0.0 mm 0.00 in/hr0.0 mm/hr 0.00 in0.0 mm
03:40 AM 63.9°F17.7°C 49.7°F9.8°C 60% 4.6 mph NNE7.4 kmh NNE 8.4 mph13.5 kmh 29.91 in1012.9 mb 0.00 in0.0 mm 0.00 in/hr0.0 mm/hr 0.00 in0.0 mm
03:30 AM 64.0°F17.8°C 49.3°F9.6°C 59% 5.1 mph N8.2 kmh N 8.8 mph14.2 kmh 29.91 in1012.9 mb 0.00 in0.0 mm 0.00 in/hr0.0 mm/hr 0.00 in0.0 mm
03:20 AM 64.0°F17.8°C 49.4°F9.7°C 59% 4.8 mph N7.7 kmh N 10.9 mph17.5 kmh 29.91 in1012.9 mb 0.00 in0.0 mm 0.00 in/hr0.0 mm/hr 0.00 in0.0 mm
03:10 AM 64.3°F17.9°C 49.7°F9.8°C 59% 6.0 mph N9.7 kmh N 7.9 mph12.7 kmh 29.91 in1012.9 mb 0.00 in0.0 mm 0.00 in/hr0.0 mm/hr 0.00 in0.0 mm
03:00 AM 64.3°F17.9°C 50.5°F10.3°C 61% 6.2 mph N10.0 kmh N 9.6 mph15.4 kmh 29.91 in1012.9 mb 0.00 in0.0 mm 0.00 in/hr0.0 mm/hr 0.00 in0.0 mm
02:50 AM 64.4°F18.0°C 51.1°F10.6°C 62% 6.2 mph N10.0 kmh N 9.0 mph14.5 kmh 29.91 in1012.9 mb 0.00 in0.0 mm 0.00 in/hr0.0 mm/hr 0.00 in0.0 mm
02:40 AM 64.6°F18.1°C 51.7°F10.9°C 63% 5.3 mph N8.5 kmh N 8.3 mph13.4 kmh 29.91 in1012.9 mb 0.00 in0.0 mm 0.00 in/hr0.0 mm/hr 0.00 in0.0 mm
02:20 AM 64.6°F18.1°C 52.2°F11.2°C 64% 7.1 mph NNW11.4 kmh NNW 9.3 mph15.0 kmh 29.91 in1012.9 mb 0.00 in0.0 mm 0.00 in/hr0.0 mm/hr 0.00 in0.0 mm
02:10 AM 64.9°F18.3°C 53.3°F11.8°C 66% 5.1 mph N8.2 kmh N 7.3 mph11.7 kmh 29.91 in1012.9 mb 0.00 in0.0 mm 0.00 in/hr0.0 mm/hr 0.00 in0.0 mm
02:00 AM 64.7°F18.2°C 53.5°F11.9°C 67% 6.7 mph NNW10.8 kmh NNW 9.7 mph15.6 kmh 29.91 in1012.9 mb 0.00 in0.0 mm 0.00 in/hr0.0 mm/hr 0.00 in0.0 mm
01:50 AM 64.9°F18.3°C 53.7°F12.1°C 67% 6.0 mph NNW9.7 kmh NNW 7.7 mph12.4 kmh 29.91 in1012.9 mb 0.00 in0.0 mm 0.00 in/hr0.0 mm/hr 0.00 in0.0 mm
01:40 AM 64.7°F18.2°C 51.8°F11.0°C 63% 9.2 mph NW14.8 kmh NW 11.0 mph17.7 kmh 29.91 in1012.9 mb 0.00 in0.0 mm 0.00 in/hr0.0 mm/hr 0.00 in0.0 mm
01:30 AM 64.8°F18.2°C 51.5°F10.8°C 62% 6.0 mph NW9.7 kmh NW 7.3 mph11.7 kmh 29.91 in1012.9 mb 0.00 in0.0 mm 0.00 in/hr0.0 mm/hr 0.00 in0.0 mm
01:20 AM 64.9°F18.3°C 51.1°F10.6°C 61% 4.7 mph NW7.6 kmh NW 7.8 mph12.6 kmh 29.91 in1012.9 mb 0.00 in0.0 mm 0.00 in/hr0.0 mm/hr 0.00 in0.0 mm
01:10 AM 64.5°F18.1°C 50.8°F10.4°C 61% 6.6 mph NW10.6 kmh NW 7.8 mph12.6 kmh 29.91 in1012.9 mb 0.00 in0.0 mm 0.00 in/hr0.0 mm/hr 0.00 in0.0 mm
01:00 AM 64.6°F18.1°C 51.3°F10.7°C 62% 5.3 mph NW8.5 kmh NW 6.5 mph10.5 kmh 29.91 in1012.9 mb 0.00 in0.0 mm 0.00 in/hr0.0 mm/hr 0.00 in0.0 mm
12:50 AM 64.3°F17.9°C 50.6°F10.3°C 61% 6.4 mph NW10.3 kmh NW 8.6 mph13.8 kmh 29.91 in1012.9 mb 0.00 in0.0 mm 0.00 in/hr0.0 mm/hr 0.00 in0.0 mm
12:40 AM 64.1°F17.8°C 50.4°F10.2°C 61% 8.0 mph NW12.9 kmh NW 11.3 mph18.2 kmh 29.91 in1012.9 mb 0.00 in0.0 mm 0.00 in/hr0.0 mm/hr 0.00 in0.0 mm
12:30 AM 64.4°F18.0°C 50.6°F10.3°C 61% 5.2 mph NW8.4 kmh NW 7.7 mph12.4 kmh 29.91 in1012.9 mb 0.00 in0.0 mm 0.00 in/hr0.0 mm/hr 0.00 in0.0 mm
12:20 AM 64.2°F17.9°C 50.5°F10.3°C 61% 6.8 mph NW10.9 kmh NW 10.4 mph16.7 kmh 29.91 in1012.9 mb 0.00 in0.0 mm 0.00 in/hr0.0 mm/hr 0.00 in0.0 mm
12:10 AM 64.2°F17.9°C 50.0°F10.0°C 60% 7.7 mph NW12.4 kmh NW 11.1 mph17.9 kmh 29.91 in1012.9 mb 0.00 in0.0 mm 0.00 in/hr0.0 mm/hr 0.00 in0.0 mm
12:00 AM 64.6°F18.1°C 50.4°F10.2°C 60% 5.4 mph NW8.7 kmh NW 7.5 mph12.1 kmh 29.91 in1012.9 mb 0.00 in0.0 mm 0.00 in/hr0.0 mm/hr 0.00 in0.0 mm